sensor_id;sensor_type;location;lat;lon;timestamp;P1;durP1;ratioP1;P2;durP2;ratioP2
54193;SDS011;40102;50.906;6.972;2023-04-24T00:00:20;1.92;;;0.70;;
54193;SDS011;40102;50.906;6.972;2023-04-24T00:02:46;1.55;;;0.85;;
54193;SDS011;40102;50.906;6.972;2023-04-24T00:05:12;0.80;;;0.60;;
54193;SDS011;40102;50.906;6.972;2023-04-24T00:07:42;0.75;;;0.50;;
54193;SDS011;40102;50.906;6.972;2023-04-24T00:10:08;0.60;;;0.50;;
54193;SDS011;40102;50.906;6.972;2023-04-24T00:12:33;0.70;;;0.50;;
54193;SDS011;40102;50.906;6.972;2023-04-24T00:14:59;0.60;;;0.60;;
54193;SDS011;40102;50.906;6.972;2023-04-24T00:17:24;0.70;;;0.70;;
54193;SDS011;40102;50.906;6.972;2023-04-24T00:19:50;2.15;;;0.70;;
54193;SDS011;40102;50.906;6.972;2023-04-24T00:22:16;1.10;;;0.50;;
54193;SDS011;40102;50.906;6.972;2023-04-24T00:24:42;0.57;;;0.50;;
54193;SDS011;40102;50.906;6.972;2023-04-24T00:27:07;0.85;;;0.50;;
54193;SDS011;40102;50.906;6.972;2023-04-24T00:29:33;1.00;;;0.40;;
54193;SDS011;40102;50.906;6.972;2023-04-24T00:31:58;0.93;;;0.50;;
54193;SDS011;40102;50.906;6.972;2023-04-24T00:34:23;0.50;;;0.45;;
54193;SDS011;40102;50.906;6.972;2023-04-24T00:36:48;0.60;;;0.55;;
54193;SDS011;40102;50.906;6.972;2023-04-24T00:39:17;0.65;;;0.60;;
54193;SDS011;40102;50.906;6.972;2023-04-24T00:41:45;1.58;;;0.60;;
54193;SDS011;40102;50.906;6.972;2023-04-24T00:44:11;1.60;;;0.65;;
54193;SDS011;40102;50.906;6.972;2023-04-24T00:46:36;0.70;;;0.50;;
54193;SDS011;40102;50.906;6.972;2023-04-24T00:49:02;2.00;;;0.70;;
54193;SDS011;40102;50.906;6.972;2023-04-24T00:51:29;0.90;;;0.70;;
54193;SDS011;40102;50.906;6.972;2023-04-24T00:53:55;0.75;;;0.60;;
54193;SDS011;40102;50.906;6.972;2023-04-24T00:56:21;0.95;;;0.70;;
54193;SDS011;40102;50.906;6.972;2023-04-24T00:58:46;0.82;;;0.57;;
54193;SDS011;40102;50.906;6.972;2023-04-24T01:01:12;0.77;;;0.60;;
54193;SDS011;40102;50.906;6.972;2023-04-24T01:03:37;0.65;;;0.55;;
54193;SDS011;40102;50.906;6.972;2023-04-24T01:06:03;1.23;;;0.60;;
54193;SDS011;40102;50.906;6.972;2023-04-24T01:08:30;0.88;;;0.70;;
54193;SDS011;40102;50.906;6.972;2023-04-24T01:10:56;1.10;;;0.70;;
54193;SDS011;40102;50.906;6.972;2023-04-24T01:13:22;1.25;;;0.68;;
54193;SDS011;40102;50.906;6.972;2023-04-24T01:15:48;1.48;;;0.70;;
54193;SDS011;40102;50.906;6.972;2023-04-24T01:18:13;1.88;;;0.98;;
54193;SDS011;40102;50.906;6.972;2023-04-24T01:20:40;0.60;;;0.60;;
54193;SDS011;40102;50.906;6.972;2023-04-24T01:23:07;2.92;;;0.90;;
54193;SDS011;40102;50.906;6.972;2023-04-24T01:25:33;1.92;;;0.80;;
54193;SDS011;40102;50.906;6.972;2023-04-24T01:27:59;1.90;;;0.95;;
54193;SDS011;40102;50.906;6.972;2023-04-24T01:30:26;1.58;;;0.70;;
54193;SDS011;40102;50.906;6.972;2023-04-24T01:32:52;1.02;;;0.85;;
54193;SDS011;40102;50.906;6.972;2023-04-24T01:35:18;1.20;;;1.00;;
54193;SDS011;40102;50.906;6.972;2023-04-24T01:37:45;3.25;;;1.90;;
54193;SDS011;40102;50.906;6.972;2023-04-24T01:40:11;1.55;;;1.00;;
54193;SDS011;40102;50.906;6.972;2023-04-24T01:42:36;1.65;;;1.13;;
54193;SDS011;40102;50.906;6.972;2023-04-24T01:45:03;1.48;;;1.10;;
54193;SDS011;40102;50.906;6.972;2023-04-24T01:47:30;1.10;;;1.00;;
54193;SDS011;40102;50.906;6.972;2023-04-24T01:49:56;2.80;;;1.25;;
54193;SDS011;40102;50.906;6.972;2023-04-24T01:52:22;2.85;;;1.20;;
54193;SDS011;40102;50.906;6.972;2023-04-24T01:54:48;2.65;;;1.30;;
54193;SDS011;40102;50.906;6.972;2023-04-24T01:57:14;1.75;;;1.20;;
54193;SDS011;40102;50.906;6.972;2023-04-24T01:59:41;2.55;;;1.45;;
54193;SDS011;40102;50.906;6.972;2023-04-24T02:02:06;3.10;;;1.90;;
54193;SDS011;40102;50.906;6.972;2023-04-24T02:04:32;2.70;;;2.00;;
54193;SDS011;40102;50.906;6.972;2023-04-24T02:06:58;2.72;;;2.03;;
54193;SDS011;40102;50.906;6.972;2023-04-24T02:09:23;3.97;;;2.13;;
54193;SDS011;40102;50.906;6.972;2023-04-24T02:11:48;4.15;;;2.20;;
54193;SDS011;40102;50.906;6.972;2023-04-24T02:14:13;4.78;;;2.65;;
54193;SDS011;40102;50.906;6.972;2023-04-24T02:16:39;3.03;;;1.98;;
54193;SDS011;40102;50.906;6.972;2023-04-24T02:19:04;4.05;;;2.00;;
54193;SDS011;40102;50.906;6.972;2023-04-24T02:21:30;4.95;;;2.13;;
54193;SDS011;40102;50.906;6.972;2023-04-24T02:23:56;3.70;;;2.40;;
54193;SDS011;40102;50.906;6.972;2023-04-24T02:26:22;4.20;;;2.00;;
54193;SDS011;40102;50.906;6.972;2023-04-24T02:28:47;2.33;;;1.92;;
54193;SDS011;40102;50.906;6.972;2023-04-24T02:31:12;3.92;;;2.22;;
54193;SDS011;40102;50.906;6.972;2023-04-24T02:33:38;3.65;;;2.70;;
54193;SDS011;40102;50.906;6.972;2023-04-24T02:36:03;3.58;;;2.17;;
54193;SDS011;40102;50.906;6.972;2023-04-24T02:38:29;6.55;;;2.63;;
54193;SDS011;40102;50.906;6.972;2023-04-24T02:40:54;4.43;;;2.95;;
54193;SDS011;40102;50.906;6.972;2023-04-24T02:43:20;4.38;;;2.50;;
54193;SDS011;40102;50.906;6.972;2023-04-24T02:45:46;4.95;;;3.25;;
54193;SDS011;40102;50.906;6.972;2023-04-24T02:48:11;6.90;;;3.00;;
54193;SDS011;40102;50.906;6.972;2023-04-24T02:50:36;5.03;;;2.97;;
54193;SDS011;40102;50.906;6.972;2023-04-24T02:53:02;4.05;;;3.00;;
54193;SDS011;40102;50.906;6.972;2023-04-24T02:55:27;4.95;;;2.95;;
54193;SDS011;40102;50.906;6.972;2023-04-24T02:57:53;6.40;;;3.22;;
54193;SDS011;40102;50.906;6.972;2023-04-24T03:00:18;4.78;;;3.05;;
54193;SDS011;40102;50.906;6.972;2023-04-24T03:02:44;4.47;;;2.90;;
54193;SDS011;40102;50.906;6.972;2023-04-24T03:05:09;5.47;;;3.00;;
54193;SDS011;40102;50.906;6.972;2023-04-24T03:07:36;4.47;;;2.85;;
54193;SDS011;40102;50.906;6.972;2023-04-24T03:10:02;5.53;;;2.78;;
54193;SDS011;40102;50.906;6.972;2023-04-24T03:12:28;7.38;;;3.20;;
54193;SDS011;40102;50.906;6.972;2023-04-24T03:14:53;3.40;;;2.50;;
54193;SDS011;40102;50.906;6.972;2023-04-24T03:17:18;4.50;;;2.90;;
54193;SDS011;40102;50.906;6.972;2023-04-24T03:19:44;6.72;;;3.53;;
54193;SDS011;40102;50.906;6.972;2023-04-24T03:22:09;4.40;;;3.13;;
54193;SDS011;40102;50.906;6.972;2023-04-24T03:24:36;6.47;;;3.15;;
54193;SDS011;40102;50.906;6.972;2023-04-24T03:27:01;5.18;;;3.50;;
54193;SDS011;40102;50.906;6.972;2023-04-24T03:29:26;5.43;;;3.00;;
54193;SDS011;40102;50.906;6.972;2023-04-24T03:31:52;8.50;;;3.28;;
54193;SDS011;40102;50.906;6.972;2023-04-24T03:34:17;3.63;;;2.70;;
54193;SDS011;40102;50.906;6.972;2023-04-24T03:36:42;4.68;;;2.83;;
54193;SDS011;40102;50.906;6.972;2023-04-24T03:39:08;5.25;;;3.30;;
54193;SDS011;40102;50.906;6.972;2023-04-24T03:41:33;4.55;;;2.63;;
54193;SDS011;40102;50.906;6.972;2023-04-24T03:43:58;4.70;;;2.80;;
54193;SDS011;40102;50.906;6.972;2023-04-24T03:46:24;8.02;;;3.35;;
54193;SDS011;40102;50.906;6.972;2023-04-24T03:48:49;4.60;;;2.97;;
54193;SDS011;40102;50.906;6.972;2023-04-24T03:51:15;4.88;;;3.38;;
54193;SDS011;40102;50.906;6.972;2023-04-24T03:53:40;4.82;;;2.80;;
54193;SDS011;40102;50.906;6.972;2023-04-24T03:56:05;6.30;;;3.40;;
54193;SDS011;40102;50.906;6.972;2023-04-24T03:58:31;4.57;;;3.08;;
54193;SDS011;40102;50.906;6.972;2023-04-24T04:00:56;6.13;;;3.03;;
54193;SDS011;40102;50.906;6.972;2023-04-24T04:03:23;6.28;;;3.47;;
54193;SDS011;40102;50.906;6.972;2023-04-24T04:05:48;5.80;;;3.13;;
54193;SDS011;40102;50.906;6.972;2023-04-24T04:08:13;3.88;;;3.20;;
54193;SDS011;40102;50.906;6.972;2023-04-24T04:10:39;4.28;;;3.10;;
54193;SDS011;40102;50.906;6.972;2023-04-24T04:13:05;12.18;;;6.43;;
54193;SDS011;40102;50.906;6.972;2023-04-24T04:15:31;7.80;;;4.05;;
54193;SDS011;40102;50.906;6.972;2023-04-24T04:17:56;7.97;;;3.65;;
54193;SDS011;40102;50.906;6.972;2023-04-24T04:20:22;7.35;;;4.28;;
54193;SDS011;40102;50.906;6.972;2023-04-24T04:22:47;5.30;;;3.15;;
54193;SDS011;40102;50.906;6.972;2023-04-24T04:25:16;4.90;;;3.25;;
54193;SDS011;40102;50.906;6.972;2023-04-24T04:27:44;6.07;;;3.40;;
54193;SDS011;40102;50.906;6.972;2023-04-24T04:30:10;5.95;;;3.15;;
54193;SDS011;40102;50.906;6.972;2023-04-24T04:32:36;4.55;;;3.17;;
54193;SDS011;40102;50.906;6.972;2023-04-24T04:35:02;5.65;;;3.60;;
54193;SDS011;40102;50.906;6.972;2023-04-24T04:37:28;3.65;;;2.63;;
54193;SDS011;40102;50.906;6.972;2023-04-24T04:39:54;4.78;;;2.92;;
54193;SDS011;40102;50.906;6.972;2023-04-24T04:42:20;6.00;;;3.70;;
54193;SDS011;40102;50.906;6.972;2023-04-24T04:44:45;4.25;;;2.80;;
54193;SDS011;40102;50.906;6.972;2023-04-24T04:47:11;4.05;;;2.85;;
54193;SDS011;40102;50.906;6.972;2023-04-24T04:49:37;4.80;;;3.03;;
54193;SDS011;40102;50.906;6.972;2023-04-24T04:52:03;4.05;;;2.63;;
54193;SDS011;40102;50.906;6.972;2023-04-24T04:54:28;5.00;;;2.92;;
54193;SDS011;40102;50.906;6.972;2023-04-24T04:56:54;5.00;;;3.13;;
54193;SDS011;40102;50.906;6.972;2023-04-24T04:59:19;5.03;;;3.28;;
54193;SDS011;40102;50.906;6.972;2023-04-24T05:01:45;4.88;;;3.00;;
54193;SDS011;40102;50.906;6.972;2023-04-24T05:04:10;4.82;;;3.05;;
54193;SDS011;40102;50.906;6.972;2023-04-24T05:06:35;5.70;;;3.17;;
54193;SDS011;40102;50.906;6.972;2023-04-24T05:09:04;4.20;;;3.13;;
54193;SDS011;40102;50.906;6.972;2023-04-24T05:11:29;4.50;;;2.80;;
54193;SDS011;40102;50.906;6.972;2023-04-24T05:13:55;4.63;;;2.90;;
54193;SDS011;40102;50.906;6.972;2023-04-24T05:16:20;4.70;;;3.17;;
54193;SDS011;40102;50.906;6.972;2023-04-24T05:18:46;6.90;;;4.70;;
54193;SDS011;40102;50.906;6.972;2023-04-24T05:21:11;5.28;;;3.25;;
54193;SDS011;40102;50.906;6.972;2023-04-24T05:23:37;4.45;;;2.85;;
54193;SDS011;40102;50.906;6.972;2023-04-24T05:26:02;5.78;;;3.53;;
54193;SDS011;40102;50.906;6.972;2023-04-24T05:28:28;4.93;;;3.42;;
54193;SDS011;40102;50.906;6.972;2023-04-24T05:30:53;5.65;;;3.20;;
54193;SDS011;40102;50.906;6.972;2023-04-24T05:33:20;4.78;;;3.20;;
54193;SDS011;40102;50.906;6.972;2023-04-24T05:35:47;6.20;;;3.20;;
54193;SDS011;40102;50.906;6.972;2023-04-24T05:38:13;6.57;;;3.25;;
54193;SDS011;40102;50.906;6.972;2023-04-24T05:40:39;6.45;;;2.90;;
54193;SDS011;40102;50.906;6.972;2023-04-24T05:43:04;7.35;;;3.45;;
54193;SDS011;40102;50.906;6.972;2023-04-24T05:45:30;5.45;;;2.75;;
54193;SDS011;40102;50.906;6.972;2023-04-24T05:47:56;5.38;;;2.95;;
54193;SDS011;40102;50.906;6.972;2023-04-24T05:50:22;5.20;;;2.63;;
54193;SDS011;40102;50.906;6.972;2023-04-24T05:52:47;4.80;;;3.08;;
54193;SDS011;40102;50.906;6.972;2023-04-24T05:55:12;5.50;;;2.92;;
54193;SDS011;40102;50.906;6.972;2023-04-24T05:57:38;6.15;;;3.40;;
54193;SDS011;40102;50.906;6.972;2023-04-24T06:00:04;5.35;;;3.90;;
54193;SDS011;40102;50.906;6.972;2023-04-24T06:02:30;7.18;;;3.60;;
54193;SDS011;40102;50.906;6.972;2023-04-24T06:04:58;7.25;;;3.60;;
54193;SDS011;40102;50.906;6.972;2023-04-24T06:07:24;9.20;;;4.00;;
54193;SDS011;40102;50.906;6.972;2023-04-24T06:09:51;6.45;;;3.50;;
54193;SDS011;40102;50.906;6.972;2023-04-24T06:12:17;8.25;;;3.80;;
54193;SDS011;40102;50.906;6.972;2023-04-24T06:14:42;4.40;;;2.95;;
54193;SDS011;40102;50.906;6.972;2023-04-24T06:17:08;5.55;;;3.22;;
54193;SDS011;40102;50.906;6.972;2023-04-24T06:19:33;4.97;;;3.22;;
54193;SDS011;40102;50.906;6.972;2023-04-24T06:21:59;5.05;;;3.17;;
54193;SDS011;40102;50.906;6.972;2023-04-24T06:24:27;4.85;;;2.83;;
54193;SDS011;40102;50.906;6.972;2023-04-24T06:26:53;3.55;;;2.70;;
54193;SDS011;40102;50.906;6.972;2023-04-24T06:29:19;3.00;;;2.10;;
54193;SDS011;40102;50.906;6.972;2023-04-24T06:31:44;4.88;;;2.72;;
54193;SDS011;40102;50.906;6.972;2023-04-24T06:34:09;3.20;;;2.45;;
54193;SDS011;40102;50.906;6.972;2023-04-24T06:36:35;4.13;;;2.80;;
54193;SDS011;40102;50.906;6.972;2023-04-24T06:39:00;3.92;;;2.08;;
54193;SDS011;40102;50.906;6.972;2023-04-24T06:41:26;5.63;;;2.00;;
54193;SDS011;40102;50.906;6.972;2023-04-24T06:43:53;2.65;;;1.60;;
54193;SDS011;40102;50.906;6.972;2023-04-24T06:46:18;1.80;;;1.50;;
54193;SDS011;40102;50.906;6.972;2023-04-24T06:48:43;3.85;;;1.48;;
54193;SDS011;40102;50.906;6.972;2023-04-24T06:51:09;2.33;;;1.30;;
54193;SDS011;40102;50.906;6.972;2023-04-24T06:53:35;6.72;;;1.50;;
54193;SDS011;40102;50.906;6.972;2023-04-24T06:56:00;2.53;;;1.20;;
54193;SDS011;40102;50.906;6.972;2023-04-24T06:58:26;1.90;;;1.30;;
54193;SDS011;40102;50.906;6.972;2023-04-24T07:00:51;2.35;;;1.25;;
54193;SDS011;40102;50.906;6.972;2023-04-24T07:03:16;4.65;;;1.13;;
54193;SDS011;40102;50.906;6.972;2023-04-24T07:05:42;1.45;;;0.80;;
54193;SDS011;40102;50.906;6.972;2023-04-24T07:08:07;2.15;;;1.20;;
54193;SDS011;40102;50.906;6.972;2023-04-24T07:10:33;1.45;;;1.00;;
54193;SDS011;40102;50.906;6.972;2023-04-24T07:12:59;2.00;;;1.15;;
54193;SDS011;40102;50.906;6.972;2023-04-24T07:15:24;1.40;;;1.17;;
54193;SDS011;40102;50.906;6.972;2023-04-24T07:17:50;1.52;;;0.98;;
54193;SDS011;40102;50.906;6.972;2023-04-24T07:20:15;3.17;;;1.27;;
54193;SDS011;40102;50.906;6.972;2023-04-24T07:22:41;1.52;;;0.80;;
54193;SDS011;40102;50.906;6.972;2023-04-24T07:25:06;2.53;;;0.90;;
54193;SDS011;40102;50.906;6.972;2023-04-24T07:27:33;1.80;;;0.80;;
54193;SDS011;40102;50.906;6.972;2023-04-24T07:29:59;1.60;;;0.90;;
54193;SDS011;40102;50.906;6.972;2023-04-24T07:32:25;1.45;;;1.10;;
54193;SDS011;40102;50.906;6.972;2023-04-24T07:34:51;1.67;;;1.10;;
54193;SDS011;40102;50.906;6.972;2023-04-24T07:37:18;2.47;;;1.10;;
54193;SDS011;40102;50.906;6.972;2023-04-24T07:39:44;1.38;;;1.10;;
54193;SDS011;40102;50.906;6.972;2023-04-24T07:42:09;2.75;;;1.27;;
54193;SDS011;40102;50.906;6.972;2023-04-24T07:44:35;1.67;;;1.05;;
54193;SDS011;40102;50.906;6.972;2023-04-24T07:47:01;1.10;;;0.80;;
54193;SDS011;40102;50.906;6.972;2023-04-24T07:49:26;1.65;;;1.10;;
54193;SDS011;40102;50.906;6.972;2023-04-24T07:51:52;1.08;;;0.85;;
54193;SDS011;40102;50.906;6.972;2023-04-24T07:54:18;0.85;;;0.60;;
54193;SDS011;40102;50.906;6.972;2023-04-24T07:56:44;0.57;;;0.57;;
54193;SDS011;40102;50.906;6.972;2023-04-24T07:59:10;0.80;;;0.60;;
54193;SDS011;40102;50.906;6.972;2023-04-24T08:01:35;0.90;;;0.77;;
54193;SDS011;40102;50.906;6.972;2023-04-24T08:04:01;1.88;;;0.65;;
54193;SDS011;40102;50.906;6.972;2023-04-24T08:06:26;0.95;;;0.60;;
54193;SDS011;40102;50.906;6.972;2023-04-24T08:08:58;2.22;;;0.88;;
54193;SDS011;40102;50.906;6.972;2023-04-24T08:11:25;1.25;;;0.70;;
54193;SDS011;40102;50.906;6.972;2023-04-24T08:13:50;1.08;;;0.70;;
54193;SDS011;40102;50.906;6.972;2023-04-24T08:16:16;1.63;;;0.60;;
54193;SDS011;40102;50.906;6.972;2023-04-24T08:18:41;0.63;;;0.60;;
54193;SDS011;40102;50.906;6.972;2023-04-24T08:21:06;1.42;;;0.80;;
54193;SDS011;40102;50.906;6.972;2023-04-24T08:23:32;2.05;;;0.82;;
54193;SDS011;40102;50.906;6.972;2023-04-24T08:25:57;1.00;;;0.75;;
54193;SDS011;40102;50.906;6.972;2023-04-24T08:28:22;1.63;;;0.50;;
54193;SDS011;40102;50.906;6.972;2023-04-24T08:30:48;2.10;;;0.80;;
54193;SDS011;40102;50.906;6.972;2023-04-24T08:33:14;2.05;;;0.70;;
54193;SDS011;40102;50.906;6.972;2023-04-24T08:35:39;1.70;;;0.73;;
54193;SDS011;40102;50.906;6.972;2023-04-24T08:38:05;2.35;;;0.40;;
54193;SDS011;40102;50.906;6.972;2023-04-24T08:40:31;1.35;;;0.40;;
54193;SDS011;40102;50.906;6.972;2023-04-24T08:42:59;1.30;;;0.47;;
54193;SDS011;40102;50.906;6.972;2023-04-24T08:45:25;1.30;;;0.60;;
54193;SDS011;40102;50.906;6.972;2023-04-24T08:47:51;0.75;;;0.60;;
54193;SDS011;40102;50.906;6.972;2023-04-24T08:50:18;0.63;;;0.60;;
54193;SDS011;40102;50.906;6.972;2023-04-24T08:52:44;0.80;;;0.70;;
54193;SDS011;40102;50.906;6.972;2023-04-24T08:55:09;4.88;;;0.80;;
54193;SDS011;40102;50.906;6.972;2023-04-24T08:57:38;2.35;;;1.05;;
54193;SDS011;40102;50.906;6.972;2023-04-24T09:00:05;2.47;;;1.00;;
54193;SDS011;40102;50.906;6.972;2023-04-24T09:02:31;2.28;;;1.30;;
54193;SDS011;40102;50.906;6.972;2023-04-24T09:04:59;2.42;;;1.42;;
54193;SDS011;40102;50.906;6.972;2023-04-24T09:07:25;2.63;;;1.33;;
54193;SDS011;40102;50.906;6.972;2023-04-24T09:09:54;3.10;;;1.40;;
54193;SDS011;40102;50.906;6.972;2023-04-24T09:12:19;3.33;;;1.70;;
54193;SDS011;40102;50.906;6.972;2023-04-24T09:14:45;3.35;;;1.60;;
54193;SDS011;40102;50.906;6.972;2023-04-24T09:17:12;3.42;;;1.70;;
54193;SDS011;40102;50.906;6.972;2023-04-24T09:19:38;5.63;;;1.60;;
54193;SDS011;40102;50.906;6.972;2023-04-24T09:22:06;3.08;;;1.65;;
54193;SDS011;40102;50.906;6.972;2023-04-24T09:24:33;3.42;;;2.00;;
54193;SDS011;40102;50.906;6.972;2023-04-24T09:26:59;2.80;;;2.00;;
54193;SDS011;40102;50.906;6.972;2023-04-24T09:29:28;2.58;;;1.75;;
54193;SDS011;40102;50.906;6.972;2023-04-24T09:31:54;4.20;;;2.28;;
54193;SDS011;40102;50.906;6.972;2023-04-24T09:34:23;3.92;;;2.22;;
54193;SDS011;40102;50.906;6.972;2023-04-24T09:36:52;3.85;;;2.22;;
54193;SDS011;40102;50.906;6.972;2023-04-24T09:39:18;4.63;;;2.53;;
54193;SDS011;40102;50.906;6.972;2023-04-24T09:41:56;5.13;;;2.50;;
54193;SDS011;40102;50.906;6.972;2023-04-24T09:44:24;3.47;;;2.40;;
54193;SDS011;40102;50.906;6.972;2023-04-24T09:46:57;4.63;;;2.47;;
54193;SDS011;40102;50.906;6.972;2023-04-24T09:49:25;4.47;;;2.90;;
54193;SDS011;40102;50.906;6.972;2023-04-24T09:52:04;4.90;;;2.83;;
54193;SDS011;40102;50.906;6.972;2023-04-24T09:54:33;6.83;;;2.70;;
54193;SDS011;40102;50.906;6.972;2023-04-24T09:56:59;7.35;;;3.30;;
54193;SDS011;40102;50.906;6.972;2023-04-24T09:59:27;4.80;;;2.75;;
54193;SDS011;40102;50.906;6.972;2023-04-24T10:01:54;5.03;;;2.97;;
54193;SDS011;40102;50.906;6.972;2023-04-24T10:04:20;6.03;;;3.08;;
54193;SDS011;40102;50.906;6.972;2023-04-24T10:06:48;4.95;;;3.25;;
54193;SDS011;40102;50.906;6.972;2023-04-24T10:09:15;6.53;;;3.67;;
54193;SDS011;40102;50.906;6.972;2023-04-24T10:11:42;6.20;;;2.92;;
54193;SDS011;40102;50.906;6.972;2023-04-24T10:14:11;12.63;;;4.43;;
54193;SDS011;40102;50.906;6.972;2023-04-24T10:16:38;5.03;;;3.10;;
54193;SDS011;40102;50.906;6.972;2023-04-24T10:19:05;8.10;;;3.35;;
54193;SDS011;40102;50.906;6.972;2023-04-24T10:21:31;5.78;;;3.00;;
54193;SDS011;40102;50.906;6.972;2023-04-24T10:23:57;3.95;;;2.33;;
54193;SDS011;40102;50.906;6.972;2023-04-24T10:26:24;5.85;;;2.42;;
54193;SDS011;40102;50.906;6.972;2023-04-24T10:28:51;4.43;;;2.22;;
54193;SDS011;40102;50.906;6.972;2023-04-24T10:31:19;4.38;;;2.83;;
54193;SDS011;40102;50.906;6.972;2023-04-24T10:33:48;6.93;;;2.25;;
54193;SDS011;40102;50.906;6.972;2023-04-24T10:36:16;4.30;;;2.00;;
54193;SDS011;40102;50.906;6.972;2023-04-24T10:38:42;5.53;;;2.10;;
54193;SDS011;40102;50.906;6.972;2023-04-24T10:41:11;4.57;;;2.47;;
54193;SDS011;40102;50.906;6.972;2023-04-24T10:43:44;6.97;;;2.05;;
54193;SDS011;40102;50.906;6.972;2023-04-24T10:46:10;4.05;;;1.98;;
54193;SDS011;40102;50.906;6.972;2023-04-24T10:48:35;4.22;;;2.20;;
54193;SDS011;40102;50.906;6.972;2023-04-24T10:51:10;3.65;;;2.00;;
54193;SDS011;40102;50.906;6.972;2023-04-24T10:53:37;7.13;;;1.90;;
54193;SDS011;40102;50.906;6.972;2023-04-24T10:56:06;4.93;;;2.90;;
54193;SDS011;40102;50.906;6.972;2023-04-24T10:58:44;6.85;;;2.47;;
54193;SDS011;40102;50.906;6.972;2023-04-24T11:01:27;9.37;;;2.47;;
54193;SDS011;40102;50.906;6.972;2023-04-24T11:03:57;4.43;;;2.97;;
54193;SDS011;40102;50.906;6.972;2023-04-24T11:06:30;4.60;;;2.45;;
54193;SDS011;40102;50.906;6.972;2023-04-24T11:09:03;8.67;;;3.10;;
54193;SDS011;40102;50.906;6.972;2023-04-24T11:11:30;8.48;;;2.90;;
54193;SDS011;40102;50.906;6.972;2023-04-24T11:24:21;6.68;;;2.33;;
54193;SDS011;40102;50.906;6.972;2023-04-24T11:26:51;7.72;;;2.55;;
54193;SDS011;40102;50.906;6.972;2023-04-24T11:29:19;6.70;;;3.65;;
54193;SDS011;40102;50.906;6.972;2023-04-24T11:31:51;6.70;;;2.55;;
54193;SDS011;40102;50.906;6.972;2023-04-24T11:34:17;15.00;;;4.38;;
54193;SDS011;40102;50.906;6.972;2023-04-24T11:36:43;7.25;;;2.92;;
54193;SDS011;40102;50.906;6.972;2023-04-24T11:39:10;7.93;;;3.08;;
54193;SDS011;40102;50.906;6.972;2023-04-24T11:41:36;6.78;;;3.00;;
54193;SDS011;40102;50.906;6.972;2023-04-24T11:44:02;7.32;;;3.60;;
54193;SDS011;40102;50.906;6.972;2023-04-24T11:46:30;5.18;;;3.30;;
54193;SDS011;40102;50.906;6.972;2023-04-24T11:48:57;12.57;;;3.30;;
54193;SDS011;40102;50.906;6.972;2023-04-24T11:51:24;7.13;;;3.15;;
54193;SDS011;40102;50.906;6.972;2023-04-24T11:53:55;4.60;;;3.20;;
54193;SDS011;40102;50.906;6.972;2023-04-24T11:56:21;7.32;;;3.58;;
54193;SDS011;40102;50.906;6.972;2023-04-24T11:58:48;5.38;;;2.78;;
54193;SDS011;40102;50.906;6.972;2023-04-24T12:01:13;11.00;;;2.90;;
54193;SDS011;40102;50.906;6.972;2023-04-24T12:03:39;6.00;;;2.75;;
54193;SDS011;40102;50.906;6.972;2023-04-24T12:06:08;5.35;;;3.35;;
54193;SDS011;40102;50.906;6.972;2023-04-24T12:08:35;5.63;;;2.92;;
54193;SDS011;40102;50.906;6.972;2023-04-24T12:11:01;5.68;;;2.78;;
54193;SDS011;40102;50.906;6.972;2023-04-24T12:13:27;5.60;;;2.83;;
54193;SDS011;40102;50.906;6.972;2023-04-24T12:16:02;5.38;;;2.78;;
54193;SDS011;40102;50.906;6.972;2023-04-24T12:18:29;8.60;;;3.35;;
54193;SDS011;40102;50.906;6.972;2023-04-24T12:20:54;5.15;;;2.97;;
54193;SDS011;40102;50.906;6.972;2023-04-24T12:23:35;7.25;;;2.75;;
54193;SDS011;40102;50.906;6.972;2023-04-24T12:26:01;5.45;;;2.70;;
54193;SDS011;40102;50.906;6.972;2023-04-24T12:28:34;11.48;;;2.90;;
54193;SDS011;40102;50.906;6.972;2023-04-24T12:31:03;7.50;;;3.13;;
54193;SDS011;40102;50.906;6.972;2023-04-24T12:33:32;6.55;;;3.20;;
54193;SDS011;40102;50.906;6.972;2023-04-24T12:35:59;8.73;;;3.40;;
54193;SDS011;40102;50.906;6.972;2023-04-24T12:38:26;7.15;;;3.00;;
54193;SDS011;40102;50.906;6.972;2023-04-24T12:43:52;8.63;;;3.15;;
54193;SDS011;40102;50.906;6.972;2023-04-24T12:46:18;8.55;;;2.78;;
54193;SDS011;40102;50.906;6.972;2023-04-24T12:48:44;11.00;;;2.67;;
54193;SDS011;40102;50.906;6.972;2023-04-24T12:51:09;5.50;;;2.47;;
54193;SDS011;40102;50.906;6.972;2023-04-24T12:53:35;6.70;;;3.05;;
54193;SDS011;40102;50.906;6.972;2023-04-24T12:56:01;4.38;;;2.45;;
54193;SDS011;40102;50.906;6.972;2023-04-24T12:58:26;9.13;;;3.00;;
54193;SDS011;40102;50.906;6.972;2023-04-24T13:00:51;5.38;;;2.45;;
54193;SDS011;40102;50.906;6.972;2023-04-24T13:03:17;5.13;;;2.60;;
54193;SDS011;40102;50.906;6.972;2023-04-24T13:05:43;7.30;;;2.78;;
54193;SDS011;40102;50.906;6.972;2023-04-24T13:08:08;9.85;;;3.22;;
54193;SDS011;40102;50.906;6.972;2023-04-24T13:10:34;7.43;;;3.20;;
54193;SDS011;40102;50.906;6.972;2023-04-24T13:13:00;9.73;;;3.40;;
54193;SDS011;40102;50.906;6.972;2023-04-24T13:15:25;8.10;;;2.78;;
54193;SDS011;40102;50.906;6.972;2023-04-24T13:17:50;9.27;;;3.60;;
54193;SDS011;40102;50.906;6.972;2023-04-24T13:20:16;10.02;;;3.83;;
54193;SDS011;40102;50.906;6.972;2023-04-24T13:22:42;8.75;;;3.08;;
54193;SDS011;40102;50.906;6.972;2023-04-24T13:25:07;6.05;;;2.90;;
54193;SDS011;40102;50.906;6.972;2023-04-24T13:27:33;8.32;;;3.55;;
54193;SDS011;40102;50.906;6.972;2023-04-24T13:29:59;6.60;;;3.47;;
54193;SDS011;40102;50.906;6.972;2023-04-24T13:32:24;8.90;;;3.88;;
54193;SDS011;40102;50.906;6.972;2023-04-24T13:34:50;6.30;;;3.55;;
54193;SDS011;40102;50.906;6.972;2023-04-24T13:37:15;9.32;;;3.53;;
54193;SDS011;40102;50.906;6.972;2023-04-24T13:39:41;7.45;;;3.50;;
54193;SDS011;40102;50.906;6.972;2023-04-24T13:42:06;7.78;;;3.55;;
54193;SDS011;40102;50.906;6.972;2023-04-24T13:44:31;10.07;;;4.00;;
54193;SDS011;40102;50.906;6.972;2023-04-24T13:46:57;12.13;;;4.70;;
54193;SDS011;40102;50.906;6.972;2023-04-24T13:49:23;8.45;;;3.38;;
54193;SDS011;40102;50.906;6.972;2023-04-24T13:51:50;6.13;;;3.00;;
54193;SDS011;40102;50.906;6.972;2023-04-24T13:54:16;10.85;;;3.95;;
54193;SDS011;40102;50.906;6.972;2023-04-24T13:56:42;6.28;;;2.90;;
54193;SDS011;40102;50.906;6.972;2023-04-24T13:59:16;9.10;;;3.28;;
54193;SDS011;40102;50.906;6.972;2023-04-24T14:01:42;6.88;;;3.25;;
54193;SDS011;40102;50.906;6.972;2023-04-24T14:04:09;7.97;;;3.10;;
54193;SDS011;40102;50.906;6.972;2023-04-24T14:06:35;7.35;;;3.70;;
54193;SDS011;40102;50.906;6.972;2023-04-24T14:09:00;9.40;;;3.20;;
54193;SDS011;40102;50.906;6.972;2023-04-24T14:11:25;5.50;;;3.35;;
54193;SDS011;40102;50.906;6.972;2023-04-24T14:13:51;11.35;;;3.95;;
54193;SDS011;40102;50.906;6.972;2023-04-24T14:16:16;6.88;;;3.08;;
54193;SDS011;40102;50.906;6.972;2023-04-24T14:18:42;6.82;;;3.05;;
54193;SDS011;40102;50.906;6.972;2023-04-24T14:21:07;5.80;;;2.97;;
54193;SDS011;40102;50.906;6.972;2023-04-24T14:23:33;8.40;;;3.17;;
54193;SDS011;40102;50.906;6.972;2023-04-24T14:25:58;9.35;;;2.78;;
54193;SDS011;40102;50.906;6.972;2023-04-24T14:28:24;5.05;;;2.90;;
54193;SDS011;40102;50.906;6.972;2023-04-24T14:30:51;5.05;;;2.72;;
54193;SDS011;40102;50.906;6.972;2023-04-24T14:33:17;9.00;;;3.00;;
54193;SDS011;40102;50.906;6.972;2023-04-24T14:35:42;9.27;;;3.28;;
54193;SDS011;40102;50.906;6.972;2023-04-24T14:38:08;7.78;;;2.97;;
54193;SDS011;40102;50.906;6.972;2023-04-24T14:40:34;5.88;;;2.90;;
54193;SDS011;40102;50.906;6.972;2023-04-24T14:43:00;5.05;;;2.88;;
54193;SDS011;40102;50.906;6.972;2023-04-24T14:45:25;8.32;;;3.10;;
54193;SDS011;40102;50.906;6.972;2023-04-24T14:47:51;14.57;;;2.50;;
54193;SDS011;40102;50.906;6.972;2023-04-24T14:50:17;5.78;;;3.28;;
54193;SDS011;40102;50.906;6.972;2023-04-24T14:52:42;6.72;;;3.08;;
54193;SDS011;40102;50.906;6.972;2023-04-24T14:55:08;7.30;;;2.83;;